createdAt,value
2023-04-01T00:05:31.187Z,9.2
2023-04-01T00:15:33.363Z,9.2
2023-04-01T00:25:35.113Z,9.2
2023-04-01T00:35:37.281Z,9.1
2023-04-01T00:45:39.492Z,9
2023-04-01T00:55:41.953Z,8.9
2023-04-01T01:15:45.756Z,8.9
2023-04-01T01:25:47.626Z,8.9
2023-04-01T01:35:49.799Z,8.9
2023-04-01T01:45:52.056Z,8.8
2023-04-01T01:55:54.347Z,8.8
2023-04-01T02:05:56.991Z,8.8
2023-04-01T02:15:59.101Z,8.8
2023-04-01T02:26:01.025Z,8.8
2023-04-01T02:36:03.147Z,8.7
2023-04-01T02:46:05.660Z,8.7
2023-04-01T02:56:08.224Z,8.7
2023-04-01T03:06:10.177Z,8.7
2023-04-01T03:16:12.771Z,8.7
2023-04-01T03:26:14.530Z,8.7
2023-04-01T03:36:16.381Z,8.7
2023-04-01T03:56:21.251Z,8.6
2023-04-01T04:06:23.770Z,8.6
2023-04-01T04:16:25.534Z,8.6
2023-04-01T04:26:27.240Z,8.6
2023-04-01T04:36:29.072Z,8.6
2023-04-01T04:46:30.894Z,8.6
2023-04-01T04:56:32.814Z,8.7
2023-04-01T05:06:35.489Z,8.7
2023-04-01T05:16:37.885Z,8.7
2023-04-01T05:26:40.006Z,8.7
2023-04-01T05:36:42.361Z,8.7
2023-04-01T05:46:44.241Z,8.8
2023-04-01T05:56:47.590Z,8.8
2023-04-01T06:06:47.948Z,8.8
2023-04-01T06:16:49.928Z,8.8
2023-04-01T06:26:51.827Z,8.9
2023-04-01T06:36:53.690Z,8.9
2023-04-01T06:56:57.874Z,8.9
2023-04-01T07:06:59.906Z,8.9
2023-04-01T07:17:02.321Z,8.9
2023-04-01T07:27:04.894Z,8.9
2023-04-01T07:37:07.048Z,8.9
2023-04-01T07:47:09.197Z,8.9
2023-04-01T07:57:11.695Z,8.9
2023-04-01T08:07:13.464Z,9
2023-04-01T08:17:15.194Z,9.1
2023-04-01T08:27:16.951Z,9.2
2023-04-01T08:28:44.384Z,9.2
2023-04-01T08:37:27.239Z,9.2
2023-04-01T08:47:29.377Z,9.3
2023-04-01T08:57:31.447Z,9.3
2023-04-01T09:07:33.803Z,9.3
2023-04-01T09:17:35.922Z,9.3
2023-04-01T09:27:38.563Z,9.3
2023-04-01T09:37:40.804Z,9.3
2023-04-01T09:57:45.110Z,9.4
2023-04-01T10:07:47.127Z,9.4
2023-04-01T10:27:51.136Z,9.6
2023-04-01T10:57:58.286Z,9.8
2023-04-01T11:08:06.360Z,9.9
2023-04-01T11:18:02.619Z,10
2023-04-01T11:28:04.452Z,10
2023-04-01T11:48:08.724Z,10.1
2023-04-01T12:08:12.969Z,10.2
2023-04-01T12:38:21.079Z,10
2023-04-01T12:48:21.720Z,9.9
2023-04-01T13:08:26.255Z,10
2023-04-01T13:18:28.198Z,10.1
2023-04-01T13:28:29.983Z,10
2023-04-01T13:48:33.582Z,10
2023-04-01T14:08:38.744Z,9.9
2023-04-01T14:18:40.973Z,10
2023-04-01T14:38:44.487Z,10
2023-04-01T14:48:47.116Z,9.9
2023-04-01T14:58:49.312Z,9.9
2023-04-01T15:08:51.606Z,9.8
2023-04-01T15:18:53.903Z,9.9
2023-04-01T15:38:58.233Z,9.9
2023-04-01T15:49:00.160Z,9.9
2023-04-01T15:59:02.850Z,9.9
2023-04-01T16:09:05.374Z,9.9
2023-04-01T16:29:09.465Z,9.9
2023-04-01T16:39:11.824Z,9.9
2023-04-01T16:49:14.013Z,9.9
2023-04-01T16:59:15.716Z,9.9
2023-04-01T17:09:18.384Z,9.9
2023-04-01T17:19:20.307Z,9.9
2023-04-01T17:29:22.222Z,9.9
2023-04-01T17:39:24.843Z,9.9
2023-04-01T17:49:27.055Z,9.9
2023-04-01T17:59:29.184Z,9.9
2023-04-01T18:09:31.190Z,9.9
2023-04-01T18:19:33.182Z,9.9
2023-04-01T18:29:35.099Z,9.8
2023-04-01T18:39:36.791Z,9.6
2023-04-01T18:49:38.524Z,9.4
2023-04-01T18:59:40.634Z,9.2
2023-04-01T19:09:43.027Z,9.1
2023-04-01T19:19:45.153Z,9
2023-04-01T19:29:47.693Z,8.8
2023-04-01T19:39:49.519Z,8.7
2023-04-01T19:49:51.699Z,8.6
2023-04-01T19:59:53.733Z,8.4
2023-04-01T20:09:56.396Z,8.3
2023-04-01T20:19:59.015Z,8.1
2023-04-01T20:30:00.932Z,8
2023-04-01T20:40:02.716Z,7.7
2023-04-01T20:50:05.395Z,7.5
2023-04-01T21:00:07.906Z,7.3
2023-04-01T21:10:10.244Z,7.2
2023-04-01T21:20:11.646Z,7.1
2023-04-01T21:30:13.509Z,7.1
2023-04-01T21:40:15.875Z,6.9
2023-04-01T21:50:18.535Z,6.9
2023-04-01T22:00:20.412Z,6.8
2023-04-01T22:10:23.065Z,6.7
2023-04-01T22:20:25.392Z,6.5
2023-04-01T22:30:27.704Z,6.4
2023-04-01T22:40:29.686Z,6.3
2023-04-01T22:50:32.315Z,6.3
2023-04-01T23:10:36.807Z,6.2
2023-04-01T23:20:39.327Z,6
2023-04-01T23:30:41.469Z,6
2023-04-01T23:40:43.830Z,5.9
2023-04-01T23:50:46.252Z,5.8
